createdAt,value
2022-08-26T00:02:46.268Z,85.10
2022-08-26T00:06:50.458Z,85.10
2022-08-26T00:10:53.440Z,85.10
2022-08-26T00:14:56.366Z,85.40
2022-08-26T00:19:00.220Z,87.00
2022-08-26T00:23:04.526Z,85.70
2022-08-26T00:27:08.388Z,85.30
2022-08-26T00:31:12.822Z,85.50
2022-08-26T00:39:21.100Z,86.00
2022-08-26T00:43:24.423Z,86.40
2022-08-26T00:47:31.064Z,86.50
2022-08-26T00:51:37.333Z,86.10
2022-08-26T00:55:42.211Z,88.80
2022-08-26T00:59:46.496Z,88.50
2022-08-26T01:03:50.605Z,88.80
2022-08-26T01:07:53.464Z,88.80
2022-08-26T01:11:58.459Z,89.80
2022-08-26T01:16:03.699Z,90.10
2022-08-26T01:20:11.494Z,90.10
2022-08-26T01:24:17.931Z,90.10
2022-08-26T01:28:23.219Z,90.00
2022-08-26T01:32:26.992Z,90.40
2022-08-26T01:36:30.379Z,90.00
2022-08-26T01:40:37.274Z,90.50
2022-08-26T01:44:42.518Z,90.70
2022-08-26T01:48:48.119Z,91.10
2022-08-26T01:52:56.245Z,91.50
2022-08-26T01:57:00.760Z,91.30
2022-08-26T02:01:05.359Z,91.30
2022-08-26T02:05:10.545Z,91.50
2022-08-26T02:09:13.715Z,91.60
2022-08-26T02:13:19.352Z,91.90
2022-08-26T02:17:24.519Z,91.40
2022-08-26T02:21:27.488Z,91.40
2022-08-26T02:25:32.439Z,91.30
2022-08-26T02:29:38.330Z,91.70
2022-08-26T02:33:43.141Z,91.80
2022-08-26T02:37:46.213Z,91.80
2022-08-26T02:41:52.200Z,92.00
2022-08-26T02:45:56.441Z,92.30
2022-08-26T02:49:59.303Z,91.70
2022-08-26T02:54:02.168Z,91.40
2022-08-26T02:58:05.525Z,92.00
2022-08-26T03:02:11.026Z,92.40
2022-08-26T03:06:13.922Z,91.80
2022-08-26T03:10:16.804Z,92.20
2022-08-26T03:14:19.745Z,92.30
2022-08-26T03:18:24.990Z,92.30
2022-08-26T03:22:27.943Z,92.20
2022-08-26T03:26:31.083Z,92.40
2022-08-26T03:30:44.780Z,92.40
2022-08-26T03:34:49.740Z,92.60
2022-08-26T03:38:52.587Z,92.30
2022-08-26T03:42:55.436Z,92.30
2022-08-26T03:46:58.288Z,92.10
2022-08-26T03:51:03.220Z,92.40
2022-08-26T03:55:06.829Z,92.50
2022-08-26T03:59:09.707Z,92.10
2022-08-26T04:03:18.151Z,92.90
2022-08-26T04:07:25.213Z,91.80
2022-08-26T04:11:30.438Z,92.40
2022-08-26T04:15:37.176Z,92.40
2022-08-26T04:19:40.873Z,92.90
2022-08-26T04:23:47.333Z,92.80
2022-08-26T04:27:50.885Z,92.30
2022-08-26T04:31:55.895Z,92.90
2022-08-26T04:36:02.291Z,92.40
2022-08-26T04:40:10.066Z,92.80
2022-08-26T04:44:13.014Z,92.90
2022-08-26T04:48:16.925Z,93.40
2022-08-26T04:52:21.124Z,93.50
2022-08-26T04:56:26.345Z,93.30
2022-08-26T05:00:29.206Z,93.10
2022-08-26T05:04:32.218Z,92.70
2022-08-26T05:08:35.074Z,91.80
2022-08-26T05:12:39.590Z,92.10
2022-08-26T05:16:43.499Z,92.70
2022-08-26T05:20:54.600Z,92.90
2022-08-26T05:24:57.797Z,93.20
2022-08-26T05:29:02.068Z,92.80
2022-08-26T05:33:05.331Z,92.60
2022-08-26T05:37:08.216Z,92.70
2022-08-26T05:41:16.587Z,92.40
2022-08-26T05:45:24.212Z,92.10
2022-08-26T05:49:27.045Z,92.10
2022-08-26T05:53:30.042Z,92.10
2022-08-26T05:57:35.372Z,91.70
2022-08-26T06:01:42.180Z,91.60
2022-08-26T06:05:45.068Z,91.60
2022-08-26T06:09:47.997Z,91.50
2022-08-26T06:13:51.335Z,92.00
2022-08-26T06:17:55.532Z,91.90
2022-08-26T06:22:21.899Z,92.00
2022-08-26T06:26:26.669Z,91.80
2022-08-26T06:30:29.472Z,91.80
2022-08-26T06:34:34.236Z,91.70
2022-08-26T06:38:37.231Z,92.00
2022-08-26T06:42:40.181Z,91.90
2022-08-26T06:46:44.341Z,91.50
2022-08-26T06:50:49.950Z,92.80
2022-08-26T06:54:53.072Z,92.10
2022-08-26T06:58:56.314Z,92.00
2022-08-26T07:02:59.133Z,92.20
2022-08-26T07:07:03.353Z,91.80
2022-08-26T07:11:06.958Z,92.60
2022-08-26T07:15:11.528Z,92.80
2022-08-26T07:19:15.573Z,92.50
2022-08-26T07:23:21.103Z,91.90
2022-08-26T07:27:25.334Z,91.70
2022-08-26T07:31:29.495Z,91.80
2022-08-26T07:35:33.000Z,92.00
2022-08-26T07:39:37.703Z,91.60
2022-08-26T07:43:43.795Z,91.80
2022-08-26T07:47:47.309Z,91.70
2022-08-26T07:51:50.354Z,91.70
2022-08-26T07:55:54.705Z,92.40
2022-08-26T08:04:00.694Z,98.00
2022-08-26T08:08:26.522Z,92.70
2022-08-26T08:12:30.657Z,92.50
2022-08-26T08:16:33.665Z,92.30
2022-08-26T08:20:37.626Z,92.20
2022-08-26T08:24:40.828Z,92.20
2022-08-26T08:28:46.279Z,92.40
2022-08-26T08:32:51.344Z,92.40
2022-08-26T08:36:54.440Z,92.40
2022-08-26T08:40:57.307Z,92.10
2022-08-26T08:45:04.945Z,92.20
2022-08-26T08:49:08.002Z,92.20
2022-08-26T08:53:12.941Z,91.90
2022-08-26T08:57:19.142Z,92.30
2022-08-26T09:01:37.246Z,92.30
2022-08-26T09:05:48.494Z,92.30
2022-08-26T09:09:53.669Z,91.60
2022-08-26T09:13:57.723Z,92.10
2022-08-26T09:18:06.638Z,92.30
2022-08-26T09:22:09.932Z,92.10
2022-08-26T09:26:17.911Z,91.90
2022-08-26T09:30:24.875Z,91.90
2022-08-26T09:34:29.380Z,91.60
2022-08-26T09:38:34.292Z,91.90
2022-08-26T09:42:37.140Z,91.90
2022-08-26T09:46:41.592Z,91.50
2022-08-26T09:50:54.269Z,91.80
2022-08-26T09:55:06.756Z,91.90
2022-08-26T09:59:10.896Z,91.90
2022-08-26T10:03:24.513Z,91.60
2022-08-26T10:07:37.232Z,91.80
2022-08-26T10:11:42.084Z,91.30
2022-08-26T10:15:50.506Z,91.30
2022-08-26T10:19:57.603Z,90.20
2022-08-26T10:24:03.578Z,91.20
2022-08-26T10:28:09.480Z,90.50
2022-08-26T10:32:15.039Z,90.40
2022-08-26T10:36:39.275Z,90.80
2022-08-26T10:40:55.252Z,89.90
2022-08-26T10:45:02.367Z,87.30
2022-08-26T10:49:07.676Z,89.50
2022-08-26T10:53:15.143Z,85.80
2022-08-26T10:57:24.655Z,89.20
2022-08-26T11:06:21.169Z,84.60
2022-08-26T11:10:43.112Z,87.40
2022-08-26T11:14:53.725Z,88.80
2022-08-26T11:19:01.908Z,88.60
2022-08-26T11:23:27.229Z,86.80
2022-08-26T11:28:04.300Z,82.40
2022-08-26T11:32:24.919Z,83.90
2022-08-26T11:36:37.604Z,87.30
2022-08-26T11:40:40.629Z,86.90
2022-08-26T11:44:49.313Z,86.90
2022-08-26T11:49:00.785Z,87.00
2022-08-26T11:53:06.416Z,87.30
2022-08-26T11:57:13.615Z,87.60
2022-08-26T12:01:26.876Z,87.90
2022-08-26T12:05:36.402Z,88.80
2022-08-26T12:09:52.167Z,86.70
2022-08-26T12:13:56.246Z,87.10
2022-08-26T12:18:16.982Z,87.10
2022-08-26T12:22:23.358Z,86.90
2022-08-26T12:26:29.155Z,87.20
2022-08-26T12:30:32.217Z,87.10
2022-08-26T12:34:35.421Z,86.80
2022-08-26T12:38:40.835Z,86.50
2022-08-26T12:42:43.655Z,86.10
2022-08-26T12:46:49.693Z,86.70
2022-08-26T12:50:53.272Z,90.00
2022-08-26T12:55:00.499Z,89.90
2022-08-26T12:59:05.381Z,89.90
2022-08-26T13:03:23.123Z,88.90
2022-08-26T13:07:27.937Z,90.10
2022-08-26T13:11:33.429Z,90.20
2022-08-26T13:15:36.459Z,91.20
2022-08-26T13:19:40.083Z,91.00
2022-08-26T13:23:42.899Z,90.40
2022-08-26T13:27:48.183Z,90.30
2022-08-26T13:31:51.439Z,90.20
2022-08-26T13:35:54.872Z,91.20
2022-08-26T13:39:58.307Z,91.40
2022-08-26T13:44:02.527Z,93.50
2022-08-26T13:48:05.954Z,91.60
2022-08-26T13:52:08.803Z,92.50
2022-08-26T13:56:11.648Z,91.40
2022-08-26T14:00:16.850Z,92.50
2022-08-26T14:04:23.253Z,91.20
2022-08-26T14:08:30.804Z,91.00
2022-08-26T14:12:33.646Z,91.30
2022-08-26T14:16:51.252Z,91.50
2022-08-26T14:21:02.912Z,91.80
2022-08-26T14:25:06.360Z,93.10
2022-08-26T14:29:10.590Z,92.00
2022-08-26T14:33:16.736Z,92.00
2022-08-26T14:37:19.677Z,95.30
2022-08-26T14:41:24.546Z,94.10
2022-08-26T14:45:28.287Z,94.80
2022-08-26T14:49:32.591Z,95.10
2022-08-26T14:53:52.751Z,95.20
2022-08-26T14:57:55.655Z,95.40
2022-08-26T15:01:58.700Z,96.60
2022-08-26T15:06:03.032Z,96.10
2022-08-26T15:10:07.047Z,95.80
2022-08-26T15:14:19.058Z,95.10
2022-08-26T15:18:23.477Z,94.10
2022-08-26T15:22:29.454Z,93.50
2022-08-26T15:26:33.587Z,94.60
2022-08-26T15:30:36.559Z,97.60
2022-08-26T15:34:39.536Z,96.80
2022-08-26T15:38:43.744Z,96.30
2022-08-26T15:42:46.676Z,97.40
2022-08-26T15:46:58.798Z,98.00
2022-08-26T15:51:02.513Z,99.70
2022-08-26T15:55:08.775Z,99.60
2022-08-26T15:59:12.046Z,99.30
2022-08-26T16:03:14.983Z,99.40
2022-08-26T16:07:18.023Z,99.00
2022-08-26T16:11:22.568Z,97.90
2022-08-26T16:15:25.411Z,98.90
2022-08-26T16:19:28.257Z,97.90
2022-08-26T16:23:31.116Z,99.50
2022-08-26T16:27:35.543Z,97.30
2022-08-26T16:31:38.784Z,98.60
2022-08-26T16:35:42.011Z,97.50
2022-08-26T16:39:45.221Z,97.00
2022-08-26T16:43:49.687Z,97.80
2022-08-26T16:47:52.619Z,96.10
2022-08-26T16:51:55.423Z,96.50
2022-08-26T16:55:58.453Z,96.80
2022-08-26T17:00:03.397Z,98.20
2022-08-26T17:04:07.258Z,98.80
2022-08-26T17:08:10.277Z,98.00
2022-08-26T17:12:13.341Z,98.50
2022-08-26T17:16:17.617Z,98.50
2022-08-26T17:20:20.988Z,97.70
2022-08-26T17:24:23.829Z,98.70
2022-08-26T17:28:26.745Z,99.90
2022-08-26T17:32:31.075Z,98.50
2022-08-26T17:36:34.054Z,97.60
2022-08-26T17:40:37.065Z,96.80
2022-08-26T17:44:40.484Z,97.00
2022-08-26T17:48:45.680Z,96.00
2022-08-26T17:52:48.686Z,96.70
2022-08-26T17:56:51.620Z,99.90
2022-08-26T18:00:54.775Z,99.90
2022-08-26T18:04:59.809Z,99.90
2022-08-26T18:09:03.876Z,99.90
2022-08-26T18:13:06.785Z,99.20
2022-08-26T18:17:09.707Z,98.50
2022-08-26T18:21:15.598Z,97.90
2022-08-26T18:25:19.053Z,97.20
2022-08-26T18:29:22.150Z,97.60
2022-08-26T18:33:25.055Z,98.00
2022-08-26T18:37:31.433Z,98.60
2022-08-26T18:41:35.485Z,98.10
2022-08-26T18:45:38.937Z,97.30
2022-08-26T18:49:41.760Z,97.60
2022-08-26T18:53:46.009Z,96.90
2022-08-26T18:57:49.513Z,97.10
2022-08-26T19:01:52.987Z,97.20
2022-08-26T19:05:55.898Z,98.10
2022-08-26T19:10:00.560Z,98.70
2022-08-26T19:14:06.662Z,99.90
2022-08-26T19:18:10.859Z,98.80
2022-08-26T19:22:13.847Z,99.50
2022-08-26T19:26:18.469Z,99.90
2022-08-26T19:30:21.397Z,99.90
2022-08-26T19:34:24.336Z,99.90
2022-08-26T19:38:27.826Z,99.90
2022-08-26T19:42:32.083Z,99.90
2022-08-26T19:46:35.904Z,99.90
2022-08-26T19:50:39.289Z,99.90
2022-08-26T19:54:42.197Z,99.90
2022-08-26T19:58:47.416Z,99.90
2022-08-26T20:02:51.239Z,99.90
2022-08-26T20:06:57.597Z,99.90
2022-08-26T20:11:02.168Z,99.90
2022-08-26T20:15:07.315Z,99.90
2022-08-26T20:19:27.653Z,99.90
2022-08-26T20:23:30.451Z,99.90
2022-08-26T20:27:37.964Z,99.90
2022-08-26T20:31:44.112Z,99.90
2022-08-26T20:35:47.073Z,99.90
2022-08-26T20:39:50.067Z,99.90
2022-08-26T20:43:53.070Z,99.90
2022-08-26T20:47:57.250Z,99.90
2022-08-26T20:52:00.503Z,99.90
2022-08-26T20:56:04.728Z,99.90
2022-08-26T21:00:08.170Z,99.90
2022-08-26T21:04:13.910Z,99.90
2022-08-26T21:08:16.707Z,99.90
2022-08-26T21:12:19.928Z,99.90
2022-08-26T21:16:22.822Z,99.90
2022-08-26T21:20:27.028Z,99.90
2022-08-26T21:24:29.818Z,99.90
2022-08-26T21:28:32.690Z,99.90
2022-08-26T21:32:35.568Z,99.90
2022-08-26T21:36:39.905Z,99.90
2022-08-26T21:40:42.795Z,99.90
2022-08-26T21:44:50.840Z,99.90
2022-08-26T21:48:56.955Z,99.90
2022-08-26T21:53:01.147Z,99.90
2022-08-26T21:57:03.942Z,99.90
2022-08-26T22:01:09.807Z,99.90
2022-08-26T22:05:12.725Z,99.90
2022-08-26T22:09:18.110Z,99.90
2022-08-26T22:13:21.463Z,99.90
2022-08-26T22:17:24.464Z,99.90
2022-08-26T22:21:28.032Z,99.90
2022-08-26T22:25:32.341Z,99.90
2022-08-26T22:29:35.240Z,99.90
2022-08-26T22:33:38.188Z,99.90
2022-08-26T22:37:41.072Z,99.90
2022-08-26T22:41:48.745Z,99.90
2022-08-26T22:45:52.951Z,99.90
2022-08-26T22:49:55.958Z,99.90
2022-08-26T22:53:58.861Z,99.90
2022-08-26T22:58:03.100Z,99.90
2022-08-26T23:02:06.068Z,99.90
2022-08-26T23:06:11.403Z,99.90
2022-08-26T23:10:14.408Z,99.90
2022-08-26T23:14:19.240Z,99.90
2022-08-26T23:18:22.097Z,99.90
2022-08-26T23:22:25.059Z,99.90
2022-08-26T23:26:27.916Z,99.90
2022-08-26T23:30:34.967Z,99.90
2022-08-26T23:35:00.827Z,99.90
2022-08-26T23:39:03.928Z,99.90
2022-08-26T23:43:08.785Z,99.90
2022-08-26T23:47:13.808Z,99.90
2022-08-26T23:51:34.631Z,99.90
2022-08-26T23:55:38.128Z,99.90
2022-08-26T23:59:41.011Z,99.90
